Time;durP1;ratioP1;P1;durP2;ratioP2;P2;SDS_P1;SDS_P2;PMS_P1;PMS_P2;Temp;Humidity;BMP_temperature;BMP_pressure;BME280_temperature;BME280_humidity;BME280_pressure;Samples;Min_cycle;Max_cycle;Signal;HPM_P1;HPM_P2
2022/03/31 00:00:05;;;;;;;9.15;4.55;;;;;;;4.46;81.84;99329.47;4934597;29;20055;-72
2022/03/31 00:02:37;;;;;;;9.45;5.00;;;;;;;4.35;82.33;99332.94;4933297;29;20058;-72
2022/03/31 00:05:03;;;;;;;8.75;5.13;;;;;;;4.25;82.86;99319.91;4934353;29;20032;-73
2022/03/31 00:07:28;;;;;;;11.23;5.65;;;;;;;4.17;82.44;99335.56;4934612;29;20043;-71
2022/03/31 00:09:53;;;;;;;9.15;4.65;;;;;;;4.13;82.18;99337.28;4934078;29;20039;-72
2022/03/31 00:12:19;;;;;;;8.23;4.35;;;;;;;4.10;82.07;99341.63;4934288;29;20039;-72
2022/03/31 00:14:44;;;;;;;8.60;4.40;;;;;;;4.10;82.38;99337.28;4934524;29;20042;-72
2022/03/31 00:17:09;;;;;;;10.98;4.57;;;;;;;4.12;82.75;99337.31;4933990;29;20040;-72
2022/03/31 00:19:34;;;;;;;9.23;4.82;;;;;;;4.23;82.38;99337.31;4934287;29;20039;-72
2022/03/31 00:22:00;;;;;;;12.57;5.43;;;;;;;4.23;82.31;99338.16;4934202;29;20078;-72
2022/03/31 00:24:25;;;;;;;9.43;4.65;;;;;;;4.31;81.99;99332.94;4930717;29;20043;-72
2022/03/31 00:26:51;;;;;;;10.27;5.20;;;;;;;4.33;81.66;99324.25;4934192;29;20032;-72
2022/03/31 00:29:16;;;;;;;10.18;5.65;;;;;;;4.41;81.62;99341.66;4934400;29;20514;-72
2022/03/31 00:31:42;;;;;;;10.98;5.18;;;;;;;4.44;81.62;99332.06;4934132;29;20043;-72
2022/03/31 00:34:07;;;;;;;8.70;4.68;;;;;;;4.55;80.96;99334.66;4933505;29;20039;-72
2022/03/31 00:36:32;;;;;;;11.32;4.88;;;;;;;4.59;80.76;99332.06;4933555;29;20043;-74
2022/03/31 00:41:42;;;;;;;14.13;4.70;;;;;;;4.71;80.37;99333.75;4929081;29;20046;-72
2022/03/31 00:44:08;;;;;;;10.95;5.05;;;;;;;4.83;79.99;99333.75;4933781;29;20406;-72
2022/03/31 00:46:34;;;;;;;10.25;4.88;;;;;;;4.91;79.46;99335.50;4934072;29;20035;-72
2022/03/31 00:49:01;;;;;;;11.52;4.97;;;;;;;5.00;79.06;99341.56;4933679;29;20027;-72
2022/03/31 00:51:27;;;;;;;9.75;5.35;;;;;;;5.01;78.42;99338.06;4933792;29;20552;-72
2022/03/31 00:53:53;;;;;;;12.43;6.57;;;;;;;5.08;78.39;99340.66;4933814;29;20438;-72
2022/03/31 00:56:19;;;;;;;10.63;4.72;;;;;;;5.08;77.50;99340.66;4930090;29;20032;-72
2022/03/31 00:58:45;;;;;;;8.65;5.30;;;;;;;5.13;77.22;99334.53;4933751;29;20047;-72
2022/03/31 01:01:13;;;;;;;10.10;4.28;;;;;;;5.19;76.94;99324.06;4933449;29;20039;-73
2022/03/31 01:03:38;;;;;;;10.02;4.70;;;;;;;5.19;76.24;99329.31;4933695;29;20577;-72
2022/03/31 01:06:04;;;;;;;7.82;4.50;;;;;;;5.17;76.65;99315.34;4929912;29;20072;-72
2022/03/31 01:08:29;;;;;;;12.20;5.28;;;;;;;5.18;75.95;99319.69;4925732;29;20122;-71
2022/03/31 01:10:56;;;;;;;13.60;5.18;;;;;;;5.17;75.73;99307.50;4933709;29;20023;-72
2022/03/31 01:13:22;;;;;;;10.70;5.25;;;;;;;5.16;76.39;99321.47;4933731;29;20044;-72
2022/03/31 01:15:47;;;;;;;10.90;5.88;;;;;;;5.11;75.71;99312.78;4932868;29;20039;-73
2022/03/31 01:18:12;;;;;;;11.73;5.75;;;;;;;5.10;75.86;99307.53;4933738;29;20071;-72
2022/03/31 01:20:38;;;;;;;11.35;6.20;;;;;;;5.14;75.81;99309.28;4933453;29;20482;-72
2022/03/31 01:23:11;;;;;;;12.60;5.90;;;;;;;5.14;75.47;99311.88;4933386;29;20034;-72
2022/03/31 01:25:36;;;;;;;13.40;7.65;;;;;;;5.12;75.46;99306.66;4933468;29;20043;-72
2022/03/31 01:28:02;;;;;;;12.80;6.40;;;;;;;5.09;75.92;99306.66;4932392;29;20043;-71
2022/03/31 01:30:27;;;;;;;13.50;6.30;;;;;;;5.13;75.58;99308.38;4933458;29;20035;-72
2022/03/31 01:32:52;;;;;;;11.02;6.80;;;;;;;5.07;75.52;99294.47;4930195;29;20442;-72
2022/03/31 01:35:18;;;;;;;13.85;5.95;;;;;;;5.05;76.04;99294.47;4933372;29;20114;-71
2022/03/31 01:37:44;;;;;;;14.48;6.55;;;;;;;5.04;75.37;99292.75;4933541;29;20070;-72
2022/03/31 01:40:10;;;;;;;10.02;5.85;;;;;;;5.11;76.06;99297.09;4932360;29;20036;-72
2022/03/31 01:42:38;;;;;;;12.98;6.22;;;;;;;5.04;76.00;99293.59;4936443;29;20036;-72
2022/03/31 01:45:07;;;;;;;15.55;5.65;;;;;;;4.96;76.41;99289.28;4936780;29;20032;-72
2022/03/31 01:47:32;;;;;;;14.85;7.10;;;;;;;4.95;76.38;99288.44;4936845;29;20095;-71
2022/03/31 01:49:57;;;;;;;13.27;6.60;;;;;;;4.96;77.40;99298.00;4937159;29;20482;-73
2022/03/31 01:52:23;;;;;;;12.93;6.75;;;;;;;4.99;76.92;99289.28;4936679;29;20039;-72
2022/03/31 01:54:49;;;;;;;15.63;7.22;;;;;;;4.94;76.79;99291.88;4936654;29;20028;-71
2022/03/31 01:57:15;;;;;;;12.73;6.53;;;;;;;5.00;76.18;99291.00;4936825;29;20115;-72
2022/03/31 01:59:41;;;;;;;14.68;6.88;;;;;;;5.03;76.49;99291.88;4934664;29;20042;-72
2022/03/31 02:02:08;;;;;;;13.13;7.15;;;;;;;5.11;76.48;99297.09;4936367;29;20223;-71
2022/03/31 02:04:33;;;;;;;12.00;7.13;;;;;;;5.12;76.24;99297.94;4936820;29;20042;-72
2022/03/31 02:06:59;;;;;;;14.88;7.90;;;;;;;5.12;75.85;99296.19;4936560;29;20418;-72
2022/03/31 02:09:25;;;;;;;13.98;7.93;;;;;;;5.10;76.41;99292.72;4936533;29;20122;-72
2022/03/31 02:11:52;;;;;;;15.52;7.97;;;;;;;5.05;75.68;99295.34;4934180;29;20558;-72
2022/03/31 02:14:19;;;;;;;17.48;9.10;;;;;;;4.97;75.59;99286.66;4934452;29;20054;-72
2022/03/31 02:16:45;;;;;;;18.55;9.82;;;;;;;4.95;75.94;99283.19;4935618;29;20099;-72
2022/03/31 02:19:11;;;;;;;13.98;9.10;;;;;;;4.98;75.63;99282.31;4932724;29;20124;-72
2022/03/31 02:21:37;;;;;;;19.58;9.45;;;;;;;4.91;75.54;99277.97;4932019;29;20114;-72
2022/03/31 02:24:02;;;;;;;14.57;9.10;;;;;;;4.81;76.15;99282.34;4936438;29;20035;-72
2022/03/31 02:26:28;;;;;;;16.58;10.38;;;;;;;4.81;75.83;99291.06;4936295;29;20051;-72
2022/03/31 02:28:53;;;;;;;15.32;9.32;;;;;;;4.83;75.85;99275.38;4934541;29;20410;-72
2022/03/31 02:31:18;;;;;;;17.00;10.25;;;;;;;4.86;75.84;99274.50;4935934;29;20039;-72
2022/03/31 02:33:44;;;;;;;16.58;10.30;;;;;;;4.85;75.68;99278.88;4934804;29;20032;-72
2022/03/31 02:36:09;;;;;;;18.67;9.93;;;;;;;4.86;76.06;99282.34;4936279;29;20118;-72
2022/03/31 02:38:36;;;;;;;18.70;10.80;;;;;;;4.88;75.45;99281.47;4935950;29;20450;-72
2022/03/31 02:41:05;;;;;;;15.45;10.07;;;;;;;4.94;75.20;99277.94;4932097;29;20411;-72
2022/03/31 02:43:31;;;;;;;17.42;10.68;;;;;;;4.98;75.47;99275.34;4934803;29;20039;-72
2022/03/31 02:45:57;;;;;;;16.02;10.82;;;;;;;4.98;75.53;99269.25;4934532;29;20406;-72
2022/03/31 02:48:23;;;;;;;17.88;11.13;;;;;;;5.01;75.37;99277.06;4936220;29;20031;-72
2022/03/31 02:50:48;;;;;;;16.15;11.05;;;;;;;5.03;74.79;99278.81;4935879;29;20043;-72
2022/03/31 02:55:57;;;;;;;19.70;10.93;;;;;;;5.00;74.93;99276.19;4934544;29;20031;-73
2022/03/31 02:58:22;;;;;;;17.65;11.63;;;;;;;4.93;75.17;99273.63;4935905;29;20043;-72
2022/03/31 03:00:48;;;;;;;18.02;11.60;;;;;;;4.94;74.98;99275.34;4935706;29;20036;-72
2022/03/31 03:03:14;;;;;;;19.17;12.93;;;;;;;4.95;74.89;99275.34;4935363;29;20102;-71
2022/03/31 03:05:42;;;;;;;19.63;12.57;;;;;;;4.91;74.81;99276.22;4935401;29;20044;-72
2022/03/31 03:08:08;;;;;;;16.98;11.68;;;;;;;4.98;74.76;99267.50;4933845;29;20126;-72
2022/03/31 03:10:33;;;;;;;18.08;12.65;;;;;;;5.00;74.54;99270.06;4935314;29;20060;-72
2022/03/31 03:12:59;;;;;;;19.65;12.30;;;;;;;4.95;74.70;99264.00;4935280;29;20028;-72
2022/03/31 03:15:27;;;;;;;22.27;12.02;;;;;;;4.91;74.77;99268.38;4931802;29;20102;-71
2022/03/31 03:17:53;;;;;;;22.42;12.75;;;;;;;4.90;74.72;99265.75;4935225;29;20035;-72
2022/03/31 03:20:19;;;;;;;19.15;13.43;;;;;;;4.87;74.53;99258.78;4935301;29;20039;-72
2022/03/31 03:22:46;;;;;;;19.98;12.43;;;;;;;4.88;74.61;99264.91;4928444;29;20145;-72
2022/03/31 03:25:15;;;;;;;20.13;13.23;;;;;;;4.87;74.16;99261.41;4927992;29;20045;-72
2022/03/31 03:27:42;;;;;;;20.58;13.13;;;;;;;4.82;74.39;99261.44;4934955;29;20040;-73
2022/03/31 03:30:08;;;;;;;24.13;13.65;;;;;;;4.79;74.53;99260.56;4935022;29;20505;-73
2022/03/31 03:32:36;;;;;;;19.90;14.02;;;;;;;4.82;74.75;99258.84;4934629;29;20039;-73
2022/03/31 03:35:03;;;;;;;19.95;14.05;;;;;;;4.91;74.58;99268.38;4933508;29;20039;-73
2022/03/31 03:37:29;;;;;;;19.65;14.50;;;;;;;4.93;74.19;99269.25;4932997;29;20094;-73
2022/03/31 03:39:54;;;;;;;20.30;13.45;;;;;;;4.91;74.02;99270.13;4934395;29;20032;-75
2022/03/31 03:42:19;;;;;;;20.23;13.20;;;;;;;4.91;73.71;99264.91;4934153;29;20466;-73
2022/03/31 03:44:45;;;;;;;22.02;13.15;;;;;;;4.94;73.92;99259.66;4934592;29;20040;-73
2022/03/31 03:47:10;;;;;;;23.88;14.55;;;;;;;4.95;73.94;99258.75;4934745;29;20047;-73
2022/03/31 03:49:36;;;;;;;21.35;13.88;;;;;;;4.97;73.49;99249.19;4934764;29;20557;-72
2022/03/31 03:52:01;;;;;;;19.10;12.52;;;;;;;4.94;73.20;99247.44;4933763;29;20043;-73
2022/03/31 03:54:27;;;;;;;18.38;12.82;;;;;;;4.90;74.09;99252.69;4930851;29;20067;-72
2022/03/31 03:56:52;;;;;;;20.13;13.68;;;;;;;4.78;73.49;99251.84;4934787;29;20035;-73
2022/03/31 03:59:17;;;;;;;18.10;13.65;;;;;;;4.84;73.81;99246.59;4934636;29;20048;-73
2022/03/31 04:01:43;;;;;;;21.90;14.00;;;;;;;4.80;74.21;99252.72;4933513;29;20047;-73
2022/03/31 04:04:08;;;;;;;26.67;18.88;;;;;;;4.79;74.19;99248.38;4929991;29;20512;-73
2022/03/31 04:06:34;;;;;;;25.90;19.17;;;;;;;4.75;74.08;99241.41;4931858;29;20502;-72
2022/03/31 04:08:59;;;;;;;25.15;17.92;;;;;;;4.75;73.94;99248.41;4928843;29;20541;-73
2022/03/31 04:11:25;;;;;;;23.30;19.15;;;;;;;4.78;74.05;99244.00;4932576;29;20031;-73
2022/03/31 04:13:50;;;;;;;22.60;17.05;;;;;;;4.73;73.62;99239.69;4930233;29;20039;-73
2022/03/31 04:16:15;;;;;;;27.95;20.13;;;;;;;4.79;73.71;99251.00;4933264;29;20414;-73
2022/03/31 04:18:41;;;;;;;27.48;21.08;;;;;;;4.78;73.80;99248.38;4931894;29;20557;-73
2022/03/31 04:21:06;;;;;;;25.27;17.40;;;;;;;4.74;73.57;99238.78;4931068;29;20698;-73
2022/03/31 04:23:31;;;;;;;29.42;22.00;;;;;;;4.78;73.53;99243.16;4932585;29;20525;-73
2022/03/31 04:25:57;;;;;;;26.13;19.63;;;;;;;4.73;73.93;99240.56;4932414;29;20035;-73
2022/03/31 04:28:22;;;;;;;29.48;20.45;;;;;;;4.76;73.62;99243.16;4929295;29;20059;-73
2022/03/31 04:30:47;;;;;;;20.42;16.02;;;;;;;4.75;73.52;99246.66;4931148;29;20091;-72
2022/03/31 04:33:13;;;;;;;22.48;14.98;;;;;;;4.79;73.60;99239.66;4930662;29;20035;-73
2022/03/31 04:35:38;;;;;;;22.27;15.65;;;;;;;4.81;73.43;99244.00;4932556;29;20031;-73
2022/03/31 04:38:04;;;;;;;27.08;19.55;;;;;;;4.77;73.78;99241.44;4933377;29;20043;-73
2022/03/31 04:40:30;;;;;;;22.38;15.88;;;;;;;4.73;73.13;99239.69;4933545;29;20067;-73
2022/03/31 04:42:55;;;;;;;21.17;15.30;;;;;;;4.71;73.65;99236.19;4932579;29;20063;-73
2022/03/31 04:45:20;;;;;;;21.20;15.70;;;;;;;4.68;73.90;99239.69;4933714;29;20040;-73
2022/03/31 04:47:46;;;;;;;22.30;16.00;;;;;;;4.65;73.65;99234.47;4934142;29;20167;-71
2022/03/31 04:50:13;;;;;;;24.30;17.00;;;;;;;4.67;73.80;99235.34;4934122;29;20126;-72
2022/03/31 04:52:38;;;;;;;21.40;15.35;;;;;;;4.66;73.15;99236.22;4933766;29;20050;-73
2022/03/31 04:55:04;;;;;;;22.02;16.75;;;;;;;4.58;73.89;99231.03;4933445;29;20035;-72
2022/03/31 04:57:30;;;;;;;26.85;18.30;;;;;;;4.52;73.36;99235.38;4933209;29;20544;-72
2022/03/31 04:59:55;;;;;;;25.02;16.85;;;;;;;4.48;73.61;99241.47;4933671;29;20035;-72
2022/03/31 05:02:21;;;;;;;22.83;17.02;;;;;;;4.52;73.86;99246.72;4931914;29;20418;-72
2022/03/31 05:04:46;;;;;;;24.30;17.77;;;;;;;4.49;73.94;99236.25;4932275;29;20495;-72
2022/03/31 05:07:11;;;;;;;23.65;17.13;;;;;;;4.51;73.55;99239.75;4933018;29;20650;-72
2022/03/31 05:09:37;;;;;;;20.63;16.23;;;;;;;4.45;73.58;99238.88;4933806;29;20036;-72
2022/03/31 05:12:03;;;;;;;22.17;16.80;;;;;;;4.38;73.15;99235.44;4933694;29;20082;-72
2022/03/31 05:14:29;;;;;;;22.98;15.85;;;;;;;4.37;73.02;99242.38;4936533;29;20075;-72
2022/03/31 05:16:54;;;;;;;21.17;16.52;;;;;;;4.28;73.30;99242.41;4937835;29;20039;-72
2022/03/31 05:19:19;;;;;;;21.77;15.00;;;;;;;4.18;73.46;99243.28;4937723;29;20091;-72
2022/03/31 05:21:45;;;;;;;20.08;14.15;;;;;;;4.18;73.32;99240.66;4937423;29;20040;-71
2022/03/31 05:24:10;;;;;;;19.42;13.85;;;;;;;4.24;73.37;99250.22;4935432;29;20058;-72
2022/03/31 05:26:35;;;;;;;22.20;14.50;;;;;;;4.19;73.66;99242.41;4937319;29;20167;-71
2022/03/31 05:29:01;;;;;;;17.52;13.70;;;;;;;4.22;73.35;99245.03;4937346;29;20048;-72
2022/03/31 05:31:26;;;;;;;18.95;13.68;;;;;;;4.18;73.11;99248.50;4936008;29;20039;-72
2022/03/31 05:33:51;;;;;;;20.48;13.88;;;;;;;4.18;72.97;99251.13;4936610;29;20051;-72
2022/03/31 05:36:17;;;;;;;19.20;13.82;;;;;;;4.21;72.89;99251.09;4937660;29;20051;-72
2022/03/31 05:38:42;;;;;;;18.80;13.85;;;;;;;4.16;72.68;99251.09;4937318;29;20044;-72
2022/03/31 05:41:07;;;;;;;17.45;13.43;;;;;;;4.24;73.07;99247.63;4936872;29;20039;-71
2022/03/31 05:43:33;;;;;;;17.70;12.98;;;;;;;4.25;72.25;99249.38;4936558;29;20052;-72
2022/03/31 05:45:58;;;;;;;17.13;12.43;;;;;;;4.25;72.40;99252.00;4936189;29;20036;-72
2022/03/31 05:48:23;;;;;;;17.33;12.32;;;;;;;4.27;71.85;99253.72;4934347;29;20059;-72
2022/03/31 05:50:49;;;;;;;21.38;12.60;;;;;;;4.24;72.07;99258.06;4937049;29;20035;-72
2022/03/31 05:53:15;;;;;;;26.13;17.52;;;;;;;4.22;72.17;99258.09;4936591;29;20028;-72
2022/03/31 05:55:40;;;;;;;22.95;15.88;;;;;;;4.28;72.03;99257.22;4936980;29;20502;-72
2022/03/31 05:58:07;;;;;;;21.27;15.73;;;;;;;4.35;71.74;99256.34;4936998;29;20491;-73
2022/03/31 06:00:32;;;;;;;19.17;14.02;;;;;;;4.31;71.70;99262.41;4936929;29;20043;-72
2022/03/31 06:02:57;;;;;;;17.30;13.55;;;;;;;4.24;71.79;99261.53;4936448;29;20055;-71
2022/03/31 06:05:26;;;;;;;23.20;14.43;;;;;;;4.20;71.74;99267.66;4935484;29;20032;-71
2022/03/31 06:07:52;;;;;;;23.15;15.20;;;;;;;4.26;71.55;99274.63;4932415;29;20040;-72
2022/03/31 06:10:19;;;;;;;25.05;17.58;;;;;;;4.32;71.54;99283.34;4930610;29;20036;-71
2022/03/31 06:12:44;;;;;;;28.38;19.95;;;;;;;4.42;71.63;99281.56;4936113;29;20032;-73
2022/03/31 06:15:10;;;;;;;26.60;19.92;;;;;;;4.42;70.92;99285.91;4936047;29;20502;-72
2022/03/31 06:17:40;;;;;;;25.17;18.40;;;;;;;4.39;70.73;99281.56;4934202;29;20039;-72
2022/03/31 06:20:06;;;;;;;22.73;14.65;;;;;;;4.46;71.07;99285.06;4936514;29;20067;-72
2022/03/31 06:22:32;;;;;;;25.90;19.10;;;;;;;4.46;70.83;99282.44;4935038;29;20050;-72
2022/03/31 06:24:57;;;;;;;25.00;16.55;;;;;;;4.50;70.73;99279.78;4935082;29;20044;-72
2022/03/31 06:27:22;;;;;;;21.17;15.27;;;;;;;4.53;69.88;99284.16;4935679;29;20047;-72
2022/03/31 06:29:49;;;;;;;19.92;11.98;;;;;;;4.53;69.70;99281.53;4936093;29;20039;-73
2022/03/31 06:32:15;;;;;;;17.13;11.00;;;;;;;4.59;69.78;99282.41;4934735;29;20126;-72
2022/03/31 06:34:41;;;;;;;15.25;10.77;;;;;;;4.62;69.79;99286.75;4935600;29;20039;-72
2022/03/31 06:37:07;;;;;;;18.67;10.88;;;;;;;4.67;69.29;99277.16;4936086;29;20040;-72
2022/03/31 06:39:33;;;;;;;19.80;11.07;;;;;;;4.64;69.05;99276.28;4935994;29;20032;-71
2022/03/31 06:41:58;;;;;;;15.90;10.90;;;;;;;4.75;69.14;99272.78;4936120;29;20036;-72
2022/03/31 06:44:23;;;;;;;17.15;10.73;;;;;;;4.95;69.03;99270.13;4935998;29;20046;-72
2022/03/31 06:46:49;;;;;;;15.70;9.75;;;;;;;5.16;68.23;99273.50;4936150;29;20044;-72
2022/03/31 06:49:14;;;;;;;16.50;10.70;;;;;;;5.33;68.04;99265.59;4936046;29;20410;-72
2022/03/31 06:51:42;;;;;;;14.60;10.00;;;;;;;5.21;67.23;99264.78;4935935;29;20094;-72
2022/03/31 06:54:09;;;;;;;15.00;10.25;;;;;;;5.26;67.20;99260.38;4933127;29;20126;-72
2022/03/31 06:56:35;;;;;;;16.73;10.38;;;;;;;5.25;66.66;99261.25;4933893;29;20478;-71
2022/03/31 06:59:01;;;;;;;14.65;11.10;;;;;;;5.32;66.52;99269.06;4935922;29;20119;-72
2022/03/31 07:01:26;;;;;;;14.68;10.40;;;;;;;5.37;66.66;99269.91;4935799;29;20044;-72
2022/03/31 07:03:52;;;;;;;14.95;10.13;;;;;;;5.45;66.99;99257.69;4935795;29;20399;-72
2022/03/31 07:06:18;;;;;;;15.25;9.80;;;;;;;5.50;66.33;99266.34;4933965;29;20542;-72
2022/03/31 07:08:43;;;;;;;12.93;8.77;;;;;;;5.52;65.56;99263.72;4935278;29;20517;-72
2022/03/31 07:11:10;;;;;;;14.95;9.68;;;;;;;5.62;65.67;99261.03;4966175;28;20042;-72
2022/03/31 07:13:35;;;;;;;12.93;8.63;;;;;;;5.69;65.36;99267.13;4935693;29;20046;-72
2022/03/31 07:16:01;;;;;;;15.52;10.23;;;;;;;5.75;65.23;99271.44;4935121;29;20109;-73
2022/03/31 07:18:26;;;;;;;15.88;9.43;;;;;;;5.77;65.19;99273.16;4934797;29;20039;-72
2022/03/31 07:20:52;;;;;;;18.27;10.63;;;;;;;5.89;65.46;99267.84;4932699;29;20052;-73
2022/03/31 07:23:18;;;;;;;16.08;9.68;;;;;;;5.91;64.39;99262.59;4934853;29;20039;-72
2022/03/31 07:25:44;;;;;;;13.40;9.30;;;;;;;5.78;64.37;99264.44;4934726;28;20511;-72
2022/03/31 07:28:09;;;;;;;12.80;8.38;;;;;;;5.72;64.46;99267.97;4931465;29;20067;-72
2022/03/31 07:30:34;;;;;;;13.05;8.23;;;;;;;5.69;64.50;99264.50;4934051;29;20090;-72
2022/03/31 07:33:03;;;;;;;12.48;7.93;;;;;;;5.66;64.13;99267.16;4934924;29;20043;-72
2022/03/31 07:35:31;;;;;;;14.52;8.13;;;;;;;5.73;64.56;99263.59;4934607;29;20122;-72
2022/03/31 07:37:57;;;;;;;13.80;8.13;;;;;;;5.67;63.98;99264.50;4931364;29;20087;-72
2022/03/31 07:40:24;;;;;;;18.23;10.10;;;;;;;5.65;64.73;99268.00;4933109;29;20043;-72
2022/03/31 07:42:50;;;;;;;27.10;18.42;;;;;;;5.77;65.63;99261.84;4934813;29;20047;-72
2022/03/31 07:45:16;;;;;;;26.45;19.77;;;;;;;5.86;65.36;99261.75;4934485;29;20035;-72
2022/03/31 07:47:42;;;;;;;14.32;9.35;;;;;;;6.00;64.94;99252.09;4934595;29;20036;-72
2022/03/31 07:50:12;;;;;;;11.85;7.75;;;;;;;6.05;63.89;99252.94;4934522;29;20567;-73
2022/03/31 07:52:39;;;;;;;11.73;7.63;;;;;;;6.00;63.68;99254.72;4929922;29;20042;-72
2022/03/31 07:55:06;;;;;;;11.48;7.75;;;;;;;6.06;63.79;99251.16;4934024;29;20511;-73
2022/03/31 07:57:32;;;;;;;22.98;14.80;;;;;;;6.15;67.17;99256.31;4934057;29;20600;-73
2022/03/31 07:59:57;;;;;;;15.73;9.95;;;;;;;6.27;63.11;99253.59;4933902;29;20042;-72
2022/03/31 08:02:25;;;;;;;12.95;7.88;;;;;;;6.31;63.36;99246.56;4933763;29;20048;-72
2022/03/31 08:04:51;;;;;;;11.40;6.93;;;;;;;6.39;62.33;99254.34;4932602;29;20529;-72
2022/03/31 08:07:17;;;;;;;12.43;8.32;;;;;;;6.40;62.62;99249.09;4933926;29;20118;-72
2022/03/31 08:09:42;;;;;;;11.02;7.07;;;;;;;6.42;61.69;99246.44;4933489;29;20583;-72
2022/03/31 08:12:08;;;;;;;13.32;7.93;;;;;;;6.56;62.41;99253.31;4932800;28;20036;-72
2022/03/31 08:14:34;;;;;;;10.68;7.43;;;;;;;6.54;61.40;99243.72;4931579;29;20028;-72
2022/03/31 08:16:59;;;;;;;12.13;6.80;;;;;;;6.54;61.27;99246.34;4932376;29;20054;-73
2022/03/31 08:19:24;;;;;;;17.15;11.88;;;;;;;6.57;60.97;99252.41;4930930;29;20036;-72
2022/03/31 08:21:50;;;;;;;23.13;14.98;;;;;;;6.70;61.21;99249.66;4929181;29;20074;-73
2022/03/31 08:24:16;;;;;;;15.30;10.05;;;;;;;6.79;61.40;99255.69;4932487;29;20082;-72
2022/03/31 08:26:43;;;;;;;9.45;6.50;;;;;;;6.80;60.52;99257.41;4931244;29;20098;-72
2022/03/31 08:29:10;;;;;;;11.65;6.28;;;;;;;6.72;60.54;99250.53;4933356;29;20074;-72
2022/03/31 08:31:36;;;;;;;12.40;7.30;;;;;;;6.57;60.22;99255.03;4933577;29;20074;-73
2022/03/31 08:34:02;;;;;;;11.25;6.82;;;;;;;6.63;60.36;99255.84;4934150;29;20468;-72
2022/03/31 08:36:28;;;;;;;10.52;6.63;;;;;;;6.77;60.26;99256.59;4930669;29;20119;-72
2022/03/31 08:38:54;;;;;;;11.40;7.70;;;;;;;6.70;59.81;99249.66;4934187;29;20099;-72
2022/03/31 08:41:23;;;;;;;12.05;6.20;;;;;;;6.49;59.93;99256.84;4930093;29;20027;-72
2022/03/31 08:43:51;;;;;;;9.52;5.57;;;;;;;6.42;59.34;99260.44;4933722;29;20043;-73
2022/03/31 08:46:16;;;;;;;10.10;6.28;;;;;;;6.48;60.15;99262.13;4934213;28;20035;-73
2022/03/31 08:48:42;;;;;;;12.77;6.70;;;;;;;6.41;59.52;99260.44;4982320;23;20118;-73
2022/03/31 08:51:08;;;;;;;11.60;7.35;;;;;;;6.50;59.90;99263.88;4914333;29;20056;-73
2022/03/31 08:53:33;;;;;;;9.10;5.82;;;;;;;6.57;59.81;99267.28;4914983;29;20414;-73
2022/03/31 08:55:58;;;;;;;9.52;6.63;;;;;;;6.65;59.08;99261.94;4914110;29;20135;-73
2022/03/31 08:58:25;;;;;;;10.00;6.65;;;;;;;6.73;59.58;99257.50;4915181;29;20043;-73
2022/03/31 09:00:50;;;;;;;9.13;6.10;;;;;;;6.83;59.56;99256.50;4918017;29;20115;-73
2022/03/31 09:03:16;;;;;;;9.77;5.78;;;;;;;6.86;59.26;99261.72;4914613;29;20452;-73
2022/03/31 09:05:52;;;;;;;9.48;6.15;;;;;;;6.90;58.81;99252.94;4914752;29;20044;-73
2022/03/31 09:08:18;;;;;;;12.20;5.90;;;;;;;6.91;58.78;99252.03;4897023;29;20792;-73
2022/03/31 09:10:49;;;;;;;9.23;5.60;;;;;;;6.94;58.19;99256.38;4914579;29;20048;-73
2022/03/31 09:13:23;;;;;;;9.50;5.97;;;;;;;6.74;57.72;99257.47;4911220;29;20025;-73
2022/03/31 09:15:53;;;;;;;12.02;6.85;;;;;;;6.76;57.69;99262.72;4913742;29;20036;-73
2022/03/31 09:18:20;;;;;;;10.43;5.80;;;;;;;6.81;57.98;99253.03;4910365;29;20050;-73
2022/03/31 09:20:49;;;;;;;9.18;5.88;;;;;;;6.78;57.78;99259.16;4913428;29;20067;-73
2022/03/31 09:23:17;;;;;;;12.80;6.10;;;;;;;6.71;57.60;99252.28;4914592;29;20398;-73
2022/03/31 09:25:44;;;;;;;11.15;7.00;;;;;;;6.85;58.08;99259.13;4909491;29;20036;-73
2022/03/31 09:28:18;;;;;;;17.25;10.88;;;;;;;6.88;58.38;99259.94;4895465;29;20039;-74
2022/03/31 09:30:46;;;;;;;15.05;9.63;;;;;;;6.76;57.91;99265.34;4914627;29;20071;-73
2022/03/31 09:33:11;;;;;;;13.23;9.13;;;;;;;6.65;58.29;99265.44;4897436;29;20032;-73
2022/03/31 09:35:37;;;;;;;16.52;10.07;;;;;;;6.73;58.57;99255.75;4914655;29;20090;-74
2022/03/31 09:38:13;;;;;;;18.63;12.60;;;;;;;6.79;58.05;99252.19;4914637;29;20075;-73
2022/03/31 09:40:38;;;;;;;17.38;12.25;;;;;;;6.83;58.22;99259.13;4910995;29;20040;-73
2022/03/31 09:43:04;;;;;;;15.35;11.20;;;;;;;6.84;58.30;99258.25;4911686;29;20456;-73
2022/03/31 09:45:38;;;;;;;16.80;11.57;;;;;;;6.89;57.83;99255.56;4913881;29;20063;-73
2022/03/31 09:48:04;;;;;;;21.25;15.88;;;;;;;6.98;57.70;99255.47;4906996;29;20028;-73
2022/03/31 09:50:34;;;;;;;20.45;16.52;;;;;;;6.99;59.06;99251.94;4908076;29;20542;-73
2022/03/31 09:53:01;;;;;;;25.33;17.77;;;;;;;7.00;59.15;99246.69;4915106;29;20044;-73
2022/03/31 09:55:26;;;;;;;22.25;16.85;;;;;;;7.33;58.45;99251.53;4899081;29;20041;-73
2022/03/31 09:57:54;;;;;;;15.32;10.95;;;;;;;7.60;56.32;99253.78;4911122;29;20036;-73
2022/03/31 10:00:21;;;;;;;13.60;9.07;;;;;;;7.71;56.24;99253.63;4913585;29;20075;-74
2022/03/31 10:02:47;;;;;;;10.23;7.85;;;;;;;7.96;55.89;99242.72;4914311;29;20036;-73
2022/03/31 10:05:12;;;;;;;14.13;8.15;;;;;;;8.04;55.54;99246.09;4914282;29;20051;-74
2022/03/31 10:07:39;;;;;;;12.05;8.13;;;;;;;8.14;55.15;99250.28;4917328;29;20040;-74
2022/03/31 10:10:05;;;;;;;12.40;8.05;;;;;;;8.01;53.73;99248.75;4914706;29;20040;-74
2022/03/31 10:12:35;;;;;;;10.98;7.93;;;;;;;7.82;54.64;99249.06;4910184;29;20043;-73
2022/03/31 10:15:17;;;;;;;12.20;8.70;;;;;;;7.74;54.39;99247.44;4895205;29;20126;-73
2022/03/31 10:17:43;;;;;;;14.07;7.60;;;;;;;7.76;54.81;99246.53;4916933;29;20394;-74
2022/03/31 10:20:14;;;;;;;10.13;7.65;;;;;;;7.79;54.26;99240.38;4913973;29;20774;-74
2022/03/31 10:25:35;;;;;;;10.13;6.75;;;;;;;7.37;55.17;99246.22;4908411;29;20163;-74
2022/03/31 10:28:08;;;;;;;12.77;8.70;;;;;;;7.35;55.01;99237.50;4906983;29;20074;-74
2022/03/31 10:30:33;;;;;;;12.23;7.82;;;;;;;7.41;55.35;99239.16;4907193;29;20069;-74
2022/03/31 10:33:04;;;;;;;12.90;9.60;;;;;;;7.63;54.96;99244.97;4906821;29;20036;-73
2022/03/31 10:35:41;;;;;;;12.35;7.80;;;;;;;7.84;53.77;99234.16;4906683;29;20037;-73
2022/03/31 10:38:20;;;;;;;11.73;7.60;;;;;;;8.03;53.75;99229.44;4899405;29;20131;-74
2022/03/31 10:40:59;;;;;;;12.57;8.25;;;;;;;8.07;53.42;99225.91;4916654;29;20135;-73
2022/03/31 10:43:27;;;;;;;11.93;8.02;;;;;;;7.96;53.30;99222.56;4915976;29;20071;-73
2022/03/31 10:45:58;;;;;;;10.45;6.72;;;;;;;7.77;53.99;99222.00;4916882;29;20040;-74
2022/03/31 10:48:29;;;;;;;11.45;8.10;;;;;;;7.67;53.66;99226.50;4916928;29;20095;-73
2022/03/31 10:51:06;;;;;;;11.48;8.13;;;;;;;7.66;53.27;99226.56;4916889;29;20471;-73
2022/03/31 10:53:34;;;;;;;11.60;6.85;;;;;;;7.31;53.53;99217.44;4913386;29;20055;-74
2022/03/31 10:56:01;;;;;;;9.65;7.15;;;;;;;7.12;54.35;99222.03;4912387;29;20032;-73
2022/03/31 10:58:29;;;;;;;12.13;7.78;;;;;;;6.95;55.28;99226.66;4899892;29;20111;-73
2022/03/31 11:01:02;;;;;;;13.48;7.78;;;;;;;6.98;54.97;99222.22;4914464;29;20044;-73
2022/03/31 11:03:28;;;;;;;11.05;7.63;;;;;;;7.03;55.00;99223.03;4916695;29;20036;-72
2022/03/31 11:05:59;;;;;;;10.60;7.43;;;;;;;7.28;55.34;99220.09;4899629;29;20036;-73
2022/03/31 11:08:24;;;;;;;10.70;7.05;;;;;;;7.32;54.63;99221.78;4916974;29;20040;-73
2022/03/31 11:10:52;;;;;;;10.43;7.18;;;;;;;7.37;53.97;99226.97;4915286;29;20055;-73
2022/03/31 11:13:20;;;;;;;10.75;7.78;;;;;;;7.13;53.93;99217.69;4915010;29;20095;-73
2022/03/31 11:15:54;;;;;;;9.57;6.15;;;;;;;7.33;54.01;99220.88;4915924;29;20051;-73
2022/03/31 11:18:21;;;;;;;10.10;7.20;;;;;;;7.46;53.95;99222.44;4916499;29;20048;-73
2022/03/31 11:20:50;;;;;;;12.90;8.10;;;;;;;7.18;54.21;99213.25;4916238;29;20131;-73
2022/03/31 11:23:15;;;;;;;14.88;6.95;;;;;;;7.29;54.76;99221.84;4914341;29;20040;-73
2022/03/31 11:25:43;;;;;;;10.93;7.47;;;;;;;7.38;54.40;99212.97;4916262;29;20140;-73
2022/03/31 11:28:13;;;;;;;11.20;7.10;;;;;;;7.19;54.20;99213.22;4916363;29;20099;-73
2022/03/31 11:30:39;;;;;;;13.48;8.00;;;;;;;7.24;54.71;99216.63;4888552;29;20048;-73
2022/03/31 11:33:04;;;;;;;13.27;7.90;;;;;;;7.29;54.79;99224.47;4915937;29;20036;-73